sensor_id;sensor_type;location;lat;lon;timestamp;P1;durP1;ratioP1;P2;durP2;ratioP2
14722;SDS011;7452;55.594;12.986;2022-12-18T00:07:13;9.77;;;6.33;;
14722;SDS011;7452;55.594;12.986;2022-12-18T00:09:48;16.07;;;7.10;;
14722;SDS011;7452;55.594;12.986;2022-12-18T00:12:34;10.77;;;6.60;;
14722;SDS011;7452;55.594;12.986;2022-12-18T00:15:01;12.43;;;7.33;;
14722;SDS011;7452;55.594;12.986;2022-12-18T00:17:45;10.93;;;6.53;;
14722;SDS011;7452;55.594;12.986;2022-12-18T00:20:20;9.77;;;6.50;;
14722;SDS011;7452;55.594;12.986;2022-12-18T00:23:06;8.93;;;6.13;;
14722;SDS011;7452;55.594;12.986;2022-12-18T00:25:35;11.97;;;6.70;;
14722;SDS011;7452;55.594;12.986;2022-12-18T00:28:11;11.03;;;6.47;;
14722;SDS011;7452;55.594;12.986;2022-12-18T00:30:39;8.17;;;6.10;;
14722;SDS011;7452;55.594;12.986;2022-12-18T00:33:09;10.83;;;5.50;;
14722;SDS011;7452;55.594;12.986;2022-12-18T00:36:01;9.30;;;5.60;;
14722;SDS011;7452;55.594;12.986;2022-12-18T00:41:54;9.60;;;5.60;;
14722;SDS011;7452;55.594;12.986;2022-12-18T00:44:39;8.97;;;6.37;;
14722;SDS011;7452;55.594;12.986;2022-12-18T00:47:10;8.70;;;5.40;;
14722;SDS011;7452;55.594;12.986;2022-12-18T00:49:41;8.67;;;5.93;;
14722;SDS011;7452;55.594;12.986;2022-12-18T00:52:14;9.33;;;5.60;;
14722;SDS011;7452;55.594;12.986;2022-12-18T00:54:50;9.57;;;5.77;;
14722;SDS011;7452;55.594;12.986;2022-12-18T00:57:20;11.10;;;5.87;;
14722;SDS011;7452;55.594;12.986;2022-12-18T01:00:02;8.50;;;6.23;;
14722;SDS011;7452;55.594;12.986;2022-12-18T01:02:44;10.57;;;6.07;;
14722;SDS011;7452;55.594;12.986;2022-12-18T01:05:13;18.43;;;7.00;;
14722;SDS011;7452;55.594;12.986;2022-12-18T01:07:52;9.20;;;5.73;;
14722;SDS011;7452;55.594;12.986;2022-12-18T01:10:25;9.13;;;6.13;;
14722;SDS011;7452;55.594;12.986;2022-12-18T01:13:00;7.97;;;5.90;;
14722;SDS011;7452;55.594;12.986;2022-12-18T01:15:32;7.90;;;5.87;;
14722;SDS011;7452;55.594;12.986;2022-12-18T01:17:59;7.77;;;5.90;;
14722;SDS011;7452;55.594;12.986;2022-12-18T01:20:29;10.67;;;6.23;;
14722;SDS011;7452;55.594;12.986;2022-12-18T01:23:09;9.87;;;5.97;;
14722;SDS011;7452;55.594;12.986;2022-12-18T01:25:56;12.23;;;5.70;;
14722;SDS011;7452;55.594;12.986;2022-12-18T01:28:29;9.33;;;5.83;;
14722;SDS011;7452;55.594;12.986;2022-12-18T01:31:08;10.37;;;6.80;;
14722;SDS011;7452;55.594;12.986;2022-12-18T01:33:37;10.43;;;6.30;;
14722;SDS011;7452;55.594;12.986;2022-12-18T01:36:06;9.37;;;6.23;;
14722;SDS011;7452;55.594;12.986;2022-12-18T01:38:49;11.67;;;6.97;;
14722;SDS011;7452;55.594;12.986;2022-12-18T01:41:22;11.73;;;6.73;;
14722;SDS011;7452;55.594;12.986;2022-12-18T01:43:51;13.10;;;6.70;;
14722;SDS011;7452;55.594;12.986;2022-12-18T01:46:21;12.67;;;6.87;;
14722;SDS011;7452;55.594;12.986;2022-12-18T01:48:49;10.60;;;6.80;;
14722;SDS011;7452;55.594;12.986;2022-12-18T01:51:20;10.00;;;6.70;;
14722;SDS011;7452;55.594;12.986;2022-12-18T01:53:59;10.30;;;6.37;;
14722;SDS011;7452;55.594;12.986;2022-12-18T01:56:31;11.43;;;6.33;;
14722;SDS011;7452;55.594;12.986;2022-12-18T01:59:00;10.83;;;7.07;;
14722;SDS011;7452;55.594;12.986;2022-12-18T02:01:32;10.53;;;7.17;;
14722;SDS011;7452;55.594;12.986;2022-12-18T02:06:46;10.53;;;6.87;;
14722;SDS011;7452;55.594;12.986;2022-12-18T02:09:22;14.13;;;7.27;;
14722;SDS011;7452;55.594;12.986;2022-12-18T02:12:04;9.90;;;6.70;;
14722;SDS011;7452;55.594;12.986;2022-12-18T02:14:45;12.20;;;6.80;;
14722;SDS011;7452;55.594;12.986;2022-12-18T02:17:27;10.70;;;7.50;;
14722;SDS011;7452;55.594;12.986;2022-12-18T02:20:05;11.97;;;7.33;;
14722;SDS011;7452;55.594;12.986;2022-12-18T02:22:46;10.17;;;7.40;;
14722;SDS011;7452;55.594;12.986;2022-12-18T02:25:40;9.47;;;7.27;;
14722;SDS011;7452;55.594;12.986;2022-12-18T02:28:31;10.97;;;7.10;;
14722;SDS011;7452;55.594;12.986;2022-12-18T02:31:11;12.20;;;7.30;;
14722;SDS011;7452;55.594;12.986;2022-12-18T02:33:44;12.47;;;7.47;;
14722;SDS011;7452;55.594;12.986;2022-12-18T02:36:19;8.80;;;6.47;;
14722;SDS011;7452;55.594;12.986;2022-12-18T02:38:57;13.03;;;6.70;;
14722;SDS011;7452;55.594;12.986;2022-12-18T02:41:30;10.13;;;6.90;;
14722;SDS011;7452;55.594;12.986;2022-12-18T02:44:06;11.27;;;6.40;;
14722;SDS011;7452;55.594;12.986;2022-12-18T02:46:39;9.70;;;6.87;;
14722;SDS011;7452;55.594;12.986;2022-12-18T02:49:24;10.67;;;6.97;;
14722;SDS011;7452;55.594;12.986;2022-12-18T02:52:09;12.23;;;6.70;;
14722;SDS011;7452;55.594;12.986;2022-12-18T02:54:51;11.63;;;6.53;;
14722;SDS011;7452;55.594;12.986;2022-12-18T02:57:35;9.50;;;6.43;;
14722;SDS011;7452;55.594;12.986;2022-12-18T03:00:10;9.27;;;6.30;;
14722;SDS011;7452;55.594;12.986;2022-12-18T03:02:50;10.63;;;6.27;;
14722;SDS011;7452;55.594;12.986;2022-12-18T03:05:30;9.17;;;6.30;;
14722;SDS011;7452;55.594;12.986;2022-12-18T03:08:05;12.47;;;6.80;;
14722;SDS011;7452;55.594;12.986;2022-12-18T03:10:53;8.10;;;6.07;;
14722;SDS011;7452;55.594;12.986;2022-12-18T03:13:31;10.13;;;6.50;;
14722;SDS011;7452;55.594;12.986;2022-12-18T03:16:01;9.17;;;6.53;;
14722;SDS011;7452;55.594;12.986;2022-12-18T03:18:33;10.17;;;6.53;;
14722;SDS011;7452;55.594;12.986;2022-12-18T03:21:13;9.27;;;5.90;;
14722;SDS011;7452;55.594;12.986;2022-12-18T03:23:50;10.10;;;6.40;;
14722;SDS011;7452;55.594;12.986;2022-12-18T03:26:22;9.50;;;6.53;;
14722;SDS011;7452;55.594;12.986;2022-12-18T03:28:59;9.23;;;5.83;;
14722;SDS011;7452;55.594;12.986;2022-12-18T03:31:33;11.73;;;6.77;;
14722;SDS011;7452;55.594;12.986;2022-12-18T03:34:03;10.63;;;6.30;;
14722;SDS011;7452;55.594;12.986;2022-12-18T03:36:36;9.87;;;5.93;;
14722;SDS011;7452;55.594;12.986;2022-12-18T03:39:04;9.07;;;6.00;;
14722;SDS011;7452;55.594;12.986;2022-12-18T03:41:41;7.57;;;5.53;;
14722;SDS011;7452;55.594;12.986;2022-12-18T03:44:27;11.37;;;6.63;;
14722;SDS011;7452;55.594;12.986;2022-12-18T03:47:05;10.27;;;6.97;;
14722;SDS011;7452;55.594;12.986;2022-12-18T03:49:38;14.23;;;7.57;;
14722;SDS011;7452;55.594;12.986;2022-12-18T03:52:20;11.53;;;7.33;;
14722;SDS011;7452;55.594;12.986;2022-12-18T03:54:56;10.17;;;6.63;;
14722;SDS011;7452;55.594;12.986;2022-12-18T03:57:41;13.00;;;7.63;;
14722;SDS011;7452;55.594;12.986;2022-12-18T04:00:15;15.33;;;7.60;;
14722;SDS011;7452;55.594;12.986;2022-12-18T04:02:55;12.67;;;7.50;;
14722;SDS011;7452;55.594;12.986;2022-12-18T04:05:37;10.97;;;7.17;;
14722;SDS011;7452;55.594;12.986;2022-12-18T04:08:14;12.87;;;7.80;;
14722;SDS011;7452;55.594;12.986;2022-12-18T04:10:47;11.00;;;7.60;;
14722;SDS011;7452;55.594;12.986;2022-12-18T04:13:27;10.87;;;7.83;;
14722;SDS011;7452;55.594;12.986;2022-12-18T04:16:05;12.47;;;7.93;;
14722;SDS011;7452;55.594;12.986;2022-12-18T04:18:39;15.80;;;8.27;;
14722;SDS011;7452;55.594;12.986;2022-12-18T04:21:10;12.27;;;8.20;;
14722;SDS011;7452;55.594;12.986;2022-12-18T04:23:37;14.37;;;8.40;;
14722;SDS011;7452;55.594;12.986;2022-12-18T04:26:13;18.20;;;8.80;;
14722;SDS011;7452;55.594;12.986;2022-12-18T04:28:44;15.50;;;8.33;;
14722;SDS011;7452;55.594;12.986;2022-12-18T04:31:36;13.33;;;8.17;;
14722;SDS011;7452;55.594;12.986;2022-12-18T04:34:08;11.97;;;8.47;;
14722;SDS011;7452;55.594;12.986;2022-12-18T04:36:35;11.80;;;8.50;;
14722;SDS011;7452;55.594;12.986;2022-12-18T04:39:05;15.53;;;8.83;;
14722;SDS011;7452;55.594;12.986;2022-12-18T04:41:33;15.77;;;8.47;;
14722;SDS011;7452;55.594;12.986;2022-12-18T04:44:01;13.70;;;8.57;;
14722;SDS011;7452;55.594;12.986;2022-12-18T04:46:45;15.27;;;8.57;;
14722;SDS011;7452;55.594;12.986;2022-12-18T04:49:23;12.90;;;8.27;;
14722;SDS011;7452;55.594;12.986;2022-12-18T04:51:51;12.43;;;8.70;;
14722;SDS011;7452;55.594;12.986;2022-12-18T04:54:26;13.37;;;8.20;;
14722;SDS011;7452;55.594;12.986;2022-12-18T04:56:58;11.83;;;8.83;;
14722;SDS011;7452;55.594;12.986;2022-12-18T04:59:26;14.20;;;8.50;;
14722;SDS011;7452;55.594;12.986;2022-12-18T05:01:59;15.70;;;9.00;;
14722;SDS011;7452;55.594;12.986;2022-12-18T05:04:29;13.03;;;9.13;;
14722;SDS011;7452;55.594;12.986;2022-12-18T05:06:57;18.90;;;10.13;;
14722;SDS011;7452;55.594;12.986;2022-12-18T05:09:38;15.53;;;7.93;;
14722;SDS011;7452;55.594;12.986;2022-12-18T05:12:08;16.33;;;8.63;;
14722;SDS011;7452;55.594;12.986;2022-12-18T05:14:41;15.57;;;8.43;;
14722;SDS011;7452;55.594;12.986;2022-12-18T05:19:54;14.13;;;8.63;;
14722;SDS011;7452;55.594;12.986;2022-12-18T05:22:24;15.57;;;8.40;;
14722;SDS011;7452;55.594;12.986;2022-12-18T05:24:52;12.27;;;7.60;;
14722;SDS011;7452;55.594;12.986;2022-12-18T05:27:23;15.47;;;8.57;;
14722;SDS011;7452;55.594;12.986;2022-12-18T05:29:53;13.43;;;7.77;;
14722;SDS011;7452;55.594;12.986;2022-12-18T05:32:20;13.77;;;8.47;;
14722;SDS011;7452;55.594;12.986;2022-12-18T05:34:54;14.07;;;8.40;;
14722;SDS011;7452;55.594;12.986;2022-12-18T05:37:26;13.63;;;8.53;;
14722;SDS011;7452;55.594;12.986;2022-12-18T05:39:56;11.70;;;8.20;;
14722;SDS011;7452;55.594;12.986;2022-12-18T05:42:24;17.93;;;8.27;;
14722;SDS011;7452;55.594;12.986;2022-12-18T05:45:01;12.83;;;8.03;;
14722;SDS011;7452;55.594;12.986;2022-12-18T05:47:28;15.83;;;8.83;;
14722;SDS011;7452;55.594;12.986;2022-12-18T05:49:59;13.43;;;7.90;;
14722;SDS011;7452;55.594;12.986;2022-12-18T05:52:28;14.50;;;8.43;;
14722;SDS011;7452;55.594;12.986;2022-12-18T05:54:57;15.00;;;8.50;;
14722;SDS011;7452;55.594;12.986;2022-12-18T05:57:29;15.07;;;8.60;;
14722;SDS011;7452;55.594;12.986;2022-12-18T05:59:59;13.30;;;7.70;;
14722;SDS011;7452;55.594;12.986;2022-12-18T06:02:28;14.97;;;8.17;;
14722;SDS011;7452;55.594;12.986;2022-12-18T06:04:55;17.40;;;8.40;;
14722;SDS011;7452;55.594;12.986;2022-12-18T06:07:27;13.03;;;8.17;;
14722;SDS011;7452;55.594;12.986;2022-12-18T06:09:55;14.63;;;8.40;;
14722;SDS011;7452;55.594;12.986;2022-12-18T06:12:24;12.07;;;8.07;;
14722;SDS011;7452;55.594;12.986;2022-12-18T06:14:53;11.93;;;8.07;;
14722;SDS011;7452;55.594;12.986;2022-12-18T06:17:32;14.27;;;8.50;;
14722;SDS011;7452;55.594;12.986;2022-12-18T06:20:02;14.40;;;8.23;;
14722;SDS011;7452;55.594;12.986;2022-12-18T06:22:33;16.33;;;8.73;;
14722;SDS011;7452;55.594;12.986;2022-12-18T06:25:12;13.73;;;8.67;;
14722;SDS011;7452;55.594;12.986;2022-12-18T06:27:46;13.37;;;7.77;;
14722;SDS011;7452;55.594;12.986;2022-12-18T06:30:21;11.83;;;8.37;;
14722;SDS011;7452;55.594;12.986;2022-12-18T06:33:00;12.17;;;7.73;;
14722;SDS011;7452;55.594;12.986;2022-12-18T06:35:40;14.90;;;8.17;;
14722;SDS011;7452;55.594;12.986;2022-12-18T06:38:12;14.17;;;8.80;;
14722;SDS011;7452;55.594;12.986;2022-12-18T06:43:37;13.77;;;7.87;;
14722;SDS011;7452;55.594;12.986;2022-12-18T06:46:08;16.27;;;8.33;;
14722;SDS011;7452;55.594;12.986;2022-12-18T06:48:37;13.00;;;7.80;;
14722;SDS011;7452;55.594;12.986;2022-12-18T06:51:05;15.10;;;8.70;;
14722;SDS011;7452;55.594;12.986;2022-12-18T06:53:40;12.80;;;7.97;;
14722;SDS011;7452;55.594;12.986;2022-12-18T06:56:10;15.00;;;8.83;;
14722;SDS011;7452;55.594;12.986;2022-12-18T06:58:38;13.07;;;7.73;;
14722;SDS011;7452;55.594;12.986;2022-12-18T07:01:11;13.00;;;7.47;;
14722;SDS011;7452;55.594;12.986;2022-12-18T07:06:35;12.00;;;7.50;;
14722;SDS011;7452;55.594;12.986;2022-12-18T07:09:05;12.80;;;8.40;;
14722;SDS011;7452;55.594;12.986;2022-12-18T07:11:33;12.20;;;7.53;;
14722;SDS011;7452;55.594;12.986;2022-12-18T07:14:07;12.27;;;7.77;;
14722;SDS011;7452;55.594;12.986;2022-12-18T07:16:38;11.73;;;7.50;;
14722;SDS011;7452;55.594;12.986;2022-12-18T07:19:11;12.70;;;8.00;;
14722;SDS011;7452;55.594;12.986;2022-12-18T07:21:39;14.47;;;8.17;;
14722;SDS011;7452;55.594;12.986;2022-12-18T07:24:08;11.80;;;7.77;;
14722;SDS011;7452;55.594;12.986;2022-12-18T07:26:45;14.37;;;8.00;;
14722;SDS011;7452;55.594;12.986;2022-12-18T07:29:13;14.90;;;8.03;;
14722;SDS011;7452;55.594;12.986;2022-12-18T07:31:44;11.27;;;7.40;;
14722;SDS011;7452;55.594;12.986;2022-12-18T07:34:13;15.00;;;7.83;;
14722;SDS011;7452;55.594;12.986;2022-12-18T07:36:52;11.97;;;6.83;;
14722;SDS011;7452;55.594;12.986;2022-12-18T07:39:31;13.07;;;6.83;;
14722;SDS011;7452;55.594;12.986;2022-12-18T07:42:04;13.37;;;7.37;;
14722;SDS011;7452;55.594;12.986;2022-12-18T07:44:49;12.10;;;7.43;;
14722;SDS011;7452;55.594;12.986;2022-12-18T07:47:19;13.70;;;7.73;;
14722;SDS011;7452;55.594;12.986;2022-12-18T07:49:46;12.40;;;7.17;;
14722;SDS011;7452;55.594;12.986;2022-12-18T07:52:14;11.90;;;6.93;;
14722;SDS011;7452;55.594;12.986;2022-12-18T07:54:50;12.87;;;6.63;;
14722;SDS011;7452;55.594;12.986;2022-12-18T07:57:27;13.60;;;7.30;;
14722;SDS011;7452;55.594;12.986;2022-12-18T07:59:54;13.37;;;6.80;;
14722;SDS011;7452;55.594;12.986;2022-12-18T08:02:24;11.23;;;6.93;;
14722;SDS011;7452;55.594;12.986;2022-12-18T08:04:53;11.80;;;7.10;;
14722;SDS011;7452;55.594;12.986;2022-12-18T08:07:29;10.93;;;6.63;;
14722;SDS011;7452;55.594;12.986;2022-12-18T08:12:52;11.73;;;6.37;;
14722;SDS011;7452;55.594;12.986;2022-12-18T08:15:41;11.87;;;6.23;;
14722;SDS011;7452;55.594;12.986;2022-12-18T08:18:10;11.03;;;6.00;;
14722;SDS011;7452;55.594;12.986;2022-12-18T08:20:40;9.47;;;6.03;;
14722;SDS011;7452;55.594;12.986;2022-12-18T08:23:08;11.07;;;6.63;;
14722;SDS011;7452;55.594;12.986;2022-12-18T08:25:38;11.60;;;6.30;;
14722;SDS011;7452;55.594;12.986;2022-12-18T08:28:08;11.50;;;6.50;;
14722;SDS011;7452;55.594;12.986;2022-12-18T08:30:35;11.80;;;6.43;;
14722;SDS011;7452;55.594;12.986;2022-12-18T08:33:11;10.70;;;6.57;;
14722;SDS011;7452;55.594;12.986;2022-12-18T08:35:42;11.70;;;6.53;;
14722;SDS011;7452;55.594;12.986;2022-12-18T08:44:08;9.87;;;6.57;;
14722;SDS011;7452;55.594;12.986;2022-12-18T08:46:53;10.87;;;6.53;;
14722;SDS011;7452;55.594;12.986;2022-12-18T08:49:23;9.57;;;6.37;;
14722;SDS011;7452;55.594;12.986;2022-12-18T08:52:09;11.20;;;6.80;;
14722;SDS011;7452;55.594;12.986;2022-12-18T08:54:41;11.23;;;6.90;;
14722;SDS011;7452;55.594;12.986;2022-12-18T08:57:21;13.63;;;7.17;;
14722;SDS011;7452;55.594;12.986;2022-12-18T08:59:53;10.20;;;6.53;;
14722;SDS011;7452;55.594;12.986;2022-12-18T09:02:26;10.63;;;6.10;;
14722;SDS011;7452;55.594;12.986;2022-12-18T09:04:56;13.53;;;6.93;;
14722;SDS011;7452;55.594;12.986;2022-12-18T09:07:27;15.57;;;7.40;;
14722;SDS011;7452;55.594;12.986;2022-12-18T09:10:00;13.43;;;7.77;;
14722;SDS011;7452;55.594;12.986;2022-12-18T09:15:01;13.90;;;7.60;;
14722;SDS011;7452;55.594;12.986;2022-12-18T09:17:32;12.70;;;7.13;;
14722;SDS011;7452;55.594;12.986;2022-12-18T09:20:15;12.43;;;6.97;;
14722;SDS011;7452;55.594;12.986;2022-12-18T09:22:59;12.87;;;7.10;;
14722;SDS011;7452;55.594;12.986;2022-12-18T09:25:28;12.70;;;7.13;;
14722;SDS011;7452;55.594;12.986;2022-12-18T09:28:01;9.70;;;6.03;;
14722;SDS011;7452;55.594;12.986;2022-12-18T09:30:30;11.57;;;7.13;;
14722;SDS011;7452;55.594;12.986;2022-12-18T09:32:59;11.43;;;7.23;;
14722;SDS011;7452;55.594;12.986;2022-12-18T09:35:35;12.13;;;7.17;;
14722;SDS011;7452;55.594;12.986;2022-12-18T09:38:05;11.40;;;7.50;;
14722;SDS011;7452;55.594;12.986;2022-12-18T09:40:40;12.67;;;6.80;;
14722;SDS011;7452;55.594;12.986;2022-12-18T09:43:14;11.53;;;7.40;;
14722;SDS011;7452;55.594;12.986;2022-12-18T09:45:46;10.43;;;6.73;;
14722;SDS011;7452;55.594;12.986;2022-12-18T09:48:26;11.37;;;7.20;;
14722;SDS011;7452;55.594;12.986;2022-12-18T09:51:03;13.03;;;7.47;;
14722;SDS011;7452;55.594;12.986;2022-12-18T09:53:38;13.00;;;7.77;;
14722;SDS011;7452;55.594;12.986;2022-12-18T09:56:16;15.03;;;7.27;;
14722;SDS011;7452;55.594;12.986;2022-12-18T09:59:02;13.63;;;7.90;;
14722;SDS011;7452;55.594;12.986;2022-12-18T10:01:31;11.37;;;7.40;;
14722;SDS011;7452;55.594;12.986;2022-12-18T10:04:05;13.00;;;8.37;;
14722;SDS011;7452;55.594;12.986;2022-12-18T10:06:40;12.70;;;7.57;;
14722;SDS011;7452;55.594;12.986;2022-12-18T10:09:22;15.17;;;8.43;;
14722;SDS011;7452;55.594;12.986;2022-12-18T10:11:57;15.27;;;7.37;;
14722;SDS011;7452;55.594;12.986;2022-12-18T10:14:43;14.00;;;7.50;;
14722;SDS011;7452;55.594;12.986;2022-12-18T10:17:24;16.33;;;8.37;;
14722;SDS011;7452;55.594;12.986;2022-12-18T10:20:00;13.60;;;8.40;;
14722;SDS011;7452;55.594;12.986;2022-12-18T10:22:36;13.50;;;7.60;;
14722;SDS011;7452;55.594;12.986;2022-12-18T10:25:29;14.57;;;8.07;;
14722;SDS011;7452;55.594;12.986;2022-12-18T10:28:07;16.17;;;8.33;;
14722;SDS011;7452;55.594;12.986;2022-12-18T10:30:47;14.43;;;8.50;;
14722;SDS011;7452;55.594;12.986;2022-12-18T10:33:17;14.90;;;8.67;;
14722;SDS011;7452;55.594;12.986;2022-12-18T10:35:47;13.80;;;8.60;;
14722;SDS011;7452;55.594;12.986;2022-12-18T10:38:22;12.93;;;7.70;;
14722;SDS011;7452;55.594;12.986;2022-12-18T10:40:52;16.00;;;7.70;;
14722;SDS011;7452;55.594;12.986;2022-12-18T10:43:28;12.07;;;7.40;;
14722;SDS011;7452;55.594;12.986;2022-12-18T10:46:04;17.30;;;8.77;;
14722;SDS011;7452;55.594;12.986;2022-12-18T10:48:52;12.87;;;7.80;;
14722;SDS011;7452;55.594;12.986;2022-12-18T10:51:23;13.30;;;7.63;;
14722;SDS011;7452;55.594;12.986;2022-12-18T10:53:56;16.13;;;8.23;;
14722;SDS011;7452;55.594;12.986;2022-12-18T10:56:34;15.40;;;8.10;;
14722;SDS011;7452;55.594;12.986;2022-12-18T10:59:09;14.07;;;8.23;;
14722;SDS011;7452;55.594;12.986;2022-12-18T11:01:50;15.47;;;8.27;;
14722;SDS011;7452;55.594;12.986;2022-12-18T11:04:33;12.97;;;7.60;;
14722;SDS011;7452;55.594;12.986;2022-12-18T11:07:01;14.30;;;7.83;;
14722;SDS011;7452;55.594;12.986;2022-12-18T11:09:34;17.80;;;8.57;;
14722;SDS011;7452;55.594;12.986;2022-12-18T11:12:19;14.40;;;7.63;;
14722;SDS011;7452;55.594;12.986;2022-12-18T11:14:51;12.63;;;7.57;;
14722;SDS011;7452;55.594;12.986;2022-12-18T11:17:38;16.60;;;8.40;;
14722;SDS011;7452;55.594;12.986;2022-12-18T11:20:07;15.23;;;7.43;;
14722;SDS011;7452;55.594;12.986;2022-12-18T11:22:59;15.53;;;7.77;;
14722;SDS011;7452;55.594;12.986;2022-12-18T11:25:32;13.77;;;6.73;;
14722;SDS011;7452;55.594;12.986;2022-12-18T11:28:02;12.20;;;6.87;;
14722;SDS011;7452;55.594;12.986;2022-12-18T11:30:38;11.17;;;6.80;;
14722;SDS011;7452;55.594;12.986;2022-12-18T11:33:15;11.53;;;7.03;;
14722;SDS011;7452;55.594;12.986;2022-12-18T11:35:52;13.13;;;7.30;;
14722;SDS011;7452;55.594;12.986;2022-12-18T11:38:29;11.20;;;6.63;;
14722;SDS011;7452;55.594;12.986;2022-12-18T11:41:04;11.77;;;6.70;;
14722;SDS011;7452;55.594;12.986;2022-12-18T11:43:41;11.87;;;7.43;;
14722;SDS011;7452;55.594;12.986;2022-12-18T11:46:17;12.03;;;7.20;;
14722;SDS011;7452;55.594;12.986;2022-12-18T11:48:54;13.47;;;7.40;;
14722;SDS011;7452;55.594;12.986;2022-12-18T11:51:26;12.87;;;7.33;;
14722;SDS011;7452;55.594;12.986;2022-12-18T11:54:01;11.37;;;7.27;;
14722;SDS011;7452;55.594;12.986;2022-12-18T11:56:51;13.57;;;7.23;;
14722;SDS011;7452;55.594;12.986;2022-12-18T11:59:28;13.97;;;7.03;;
14722;SDS011;7452;55.594;12.986;2022-12-18T12:05:12;10.73;;;6.50;;
14722;SDS011;7452;55.594;12.986;2022-12-18T12:07:54;12.93;;;7.30;;
14722;SDS011;7452;55.594;12.986;2022-12-18T12:10:39;10.67;;;6.47;;
14722;SDS011;7452;55.594;12.986;2022-12-18T12:13:19;11.47;;;6.87;;
14722;SDS011;7452;55.594;12.986;2022-12-18T12:16:36;12.53;;;6.43;;
14722;SDS011;7452;55.594;12.986;2022-12-18T12:19:16;11.43;;;6.53;;
14722;SDS011;7452;55.594;12.986;2022-12-18T12:22:06;13.53;;;6.67;;
14722;SDS011;7452;55.594;12.986;2022-12-18T12:24:47;13.47;;;7.47;;
14722;SDS011;7452;55.594;12.986;2022-12-18T12:27:33;12.13;;;6.43;;
14722;SDS011;7452;55.594;12.986;2022-12-18T12:30:11;12.47;;;7.13;;
14722;SDS011;7452;55.594;12.986;2022-12-18T12:32:58;10.57;;;6.87;;
14722;SDS011;7452;55.594;12.986;2022-12-18T12:35:47;14.90;;;7.00;;
14722;SDS011;7452;55.594;12.986;2022-12-18T12:38:21;12.73;;;6.87;;
14722;SDS011;7452;55.594;12.986;2022-12-18T12:40:54;12.33;;;7.13;;
14722;SDS011;7452;55.594;12.986;2022-12-18T12:43:55;12.10;;;6.57;;
14722;SDS011;7452;55.594;12.986;2022-12-18T12:46:25;13.13;;;7.13;;
14722;SDS011;7452;55.594;12.986;2022-12-18T12:49:00;12.40;;;6.57;;
14722;SDS011;7452;55.594;12.986;2022-12-18T12:51:30;10.73;;;6.37;;
14722;SDS011;7452;55.594;12.986;2022-12-18T12:54:05;12.50;;;7.07;;
14722;SDS011;7452;55.594;12.986;2022-12-18T12:56:57;12.40;;;7.13;;
14722;SDS011;7452;55.594;12.986;2022-12-18T12:59:31;11.80;;;6.17;;
14722;SDS011;7452;55.594;12.986;2022-12-18T13:02:16;11.37;;;6.03;;
14722;SDS011;7452;55.594;12.986;2022-12-18T13:05:09;12.47;;;6.27;;
14722;SDS011;7452;55.594;12.986;2022-12-18T13:07:47;10.07;;;6.37;;
14722;SDS011;7452;55.594;12.986;2022-12-18T13:10:26;12.70;;;6.10;;
14722;SDS011;7452;55.594;12.986;2022-12-18T13:13:07;9.23;;;5.47;;
14722;SDS011;7452;55.594;12.986;2022-12-18T13:15:37;9.47;;;6.27;;
14722;SDS011;7452;55.594;12.986;2022-12-18T13:18:14;11.20;;;6.23;;
14722;SDS011;7452;55.594;12.986;2022-12-18T13:20:50;10.00;;;5.53;;
14722;SDS011;7452;55.594;12.986;2022-12-18T13:23:33;10.93;;;5.83;;
14722;SDS011;7452;55.594;12.986;2022-12-18T13:26:28;12.07;;;6.90;;
14722;SDS011;7452;55.594;12.986;2022-12-18T13:29:01;11.50;;;6.10;;
14722;SDS011;7452;55.594;12.986;2022-12-18T13:34:27;11.30;;;5.67;;
14722;SDS011;7452;55.594;12.986;2022-12-18T13:40:13;11.00;;;5.47;;
14722;SDS011;7452;55.594;12.986;2022-12-18T13:43:24;13.20;;;6.80;;
14722;SDS011;7452;55.594;12.986;2022-12-18T13:46:21;11.20;;;6.47;;
14722;SDS011;7452;55.594;12.986;2022-12-18T13:48:52;11.97;;;6.50;;
14722;SDS011;7452;55.594;12.986;2022-12-18T13:51:36;12.63;;;7.00;;
14722;SDS011;7452;55.594;12.986;2022-12-18T13:54:13;10.13;;;6.00;;
14722;SDS011;7452;55.594;12.986;2022-12-18T13:56:52;11.70;;;6.30;;
14722;SDS011;7452;55.594;12.986;2022-12-18T13:59:22;11.53;;;6.00;;
14722;SDS011;7452;55.594;12.986;2022-12-18T14:01:53;10.77;;;6.07;;
14722;SDS011;7452;55.594;12.986;2022-12-18T14:04:23;12.77;;;6.60;;
14722;SDS011;7452;55.594;12.986;2022-12-18T14:06:58;11.80;;;6.33;;
14722;SDS011;7452;55.594;12.986;2022-12-18T14:09:34;9.17;;;5.67;;
14722;SDS011;7452;55.594;12.986;2022-12-18T14:12:11;12.90;;;6.50;;
14722;SDS011;7452;55.594;12.986;2022-12-18T14:15:00;13.80;;;6.90;;
14722;SDS011;7452;55.594;12.986;2022-12-18T14:17:30;14.60;;;6.50;;
14722;SDS011;7452;55.594;12.986;2022-12-18T14:19:58;12.80;;;7.00;;
14722;SDS011;7452;55.594;12.986;2022-12-18T14:22:28;13.63;;;6.80;;
14722;SDS011;7452;55.594;12.986;2022-12-18T14:25:06;9.60;;;6.00;;
14722;SDS011;7452;55.594;12.986;2022-12-18T14:27:52;11.90;;;6.27;;
14722;SDS011;7452;55.594;12.986;2022-12-18T14:30:24;9.23;;;5.93;;
14722;SDS011;7452;55.594;12.986;2022-12-18T14:32:59;12.10;;;6.97;;
14722;SDS011;7452;55.594;12.986;2022-12-18T14:35:35;10.57;;;5.83;;
14722;SDS011;7452;55.594;12.986;2022-12-18T14:38:21;10.43;;;6.17;;
14722;SDS011;7452;55.594;12.986;2022-12-18T14:40:55;10.30;;;6.30;;
14722;SDS011;7452;55.594;12.986;2022-12-18T14:43:28;10.87;;;6.23;;
14722;SDS011;7452;55.594;12.986;2022-12-18T14:45:56;10.00;;;5.77;;
14722;SDS011;7452;55.594;12.986;2022-12-18T14:48:32;10.50;;;6.07;;
14722;SDS011;7452;55.594;12.986;2022-12-18T14:51:03;10.90;;;5.87;;
14722;SDS011;7452;55.594;12.986;2022-12-18T14:53:41;8.20;;;5.67;;
14722;SDS011;7452;55.594;12.986;2022-12-18T14:56:15;9.40;;;5.80;;
14722;SDS011;7452;55.594;12.986;2022-12-18T14:58:53;11.23;;;6.27;;
14722;SDS011;7452;55.594;12.986;2022-12-18T15:01:25;10.27;;;5.83;;
14722;SDS011;7452;55.594;12.986;2022-12-18T15:03:55;8.17;;;4.80;;
14722;SDS011;7452;55.594;12.986;2022-12-18T15:06:32;10.13;;;4.67;;
14722;SDS011;7452;55.594;12.986;2022-12-18T15:09:20;9.37;;;5.37;;
14722;SDS011;7452;55.594;12.986;2022-12-18T15:12:04;8.40;;;4.80;;
14722;SDS011;7452;55.594;12.986;2022-12-18T15:14:45;7.30;;;4.63;;
14722;SDS011;7452;55.594;12.986;2022-12-18T15:17:15;9.60;;;4.70;;
14722;SDS011;7452;55.594;12.986;2022-12-18T15:19:52;9.60;;;4.70;;
14722;SDS011;7452;55.594;12.986;2022-12-18T15:22:30;9.07;;;4.90;;
14722;SDS011;7452;55.594;12.986;2022-12-18T15:25:03;8.40;;;4.50;;
14722;SDS011;7452;55.594;12.986;2022-12-18T15:28:01;9.87;;;4.83;;
14722;SDS011;7452;55.594;12.986;2022-12-18T15:33:27;8.60;;;4.67;;
14722;SDS011;7452;55.594;12.986;2022-12-18T15:36:05;10.87;;;5.00;;
14722;SDS011;7452;55.594;12.986;2022-12-18T15:38:43;8.67;;;5.30;;
14722;SDS011;7452;55.594;12.986;2022-12-18T15:41:26;8.07;;;4.27;;
14722;SDS011;7452;55.594;12.986;2022-12-18T15:43:55;8.73;;;4.73;;
14722;SDS011;7452;55.594;12.986;2022-12-18T15:46:24;9.17;;;4.43;;
14722;SDS011;7452;55.594;12.986;2022-12-18T15:48:58;10.20;;;4.77;;
14722;SDS011;7452;55.594;12.986;2022-12-18T15:51:28;9.83;;;5.47;;
14722;SDS011;7452;55.594;12.986;2022-12-18T15:54:01;8.87;;;5.10;;
14722;SDS011;7452;55.594;12.986;2022-12-18T15:56:31;11.43;;;5.23;;
14722;SDS011;7452;55.594;12.986;2022-12-18T15:59:19;13.13;;;5.90;;
14722;SDS011;7452;55.594;12.986;2022-12-18T16:01:56;15.37;;;6.50;;
14722;SDS011;7452;55.594;12.986;2022-12-18T16:04:25;13.00;;;6.97;;
14722;SDS011;7452;55.594;12.986;2022-12-18T16:06:56;10.97;;;6.87;;
14722;SDS011;7452;55.594;12.986;2022-12-18T16:09:24;13.13;;;6.17;;